Time;durP1;ratioP1;P1;durP2;ratioP2;P2;SDS_P1;SDS_P2;PMS_P1;PMS_P2;Temp;Humidity;BMP_temperature;BMP_pressure;BME280_temperature;BME280_humidity;BME280_pressure;Samples;Min_cycle;Max_cycle;Signal;HPM_P1;HPM_P2
2022/07/10 00:00:17;;;;;;;3.33;2.60;;;19.30;70.10;;;;;;5056899;28;20530;-45
2022/07/10 00:02:44;;;;;;;3.40;2.57;;;19.40;70.10;;;;;;5055928;28;20457;-45
2022/07/10 00:05:11;;;;;;;3.80;2.70;;;19.40;69.80;;;;;;5040828;28;20936;-45
2022/07/10 00:07:46;;;;;;;2.17;2.00;;;19.30;69.90;;;;;;5056724;28;20482;-45
2022/07/10 00:10:13;;;;;;;5.30;2.37;;;19.30;69.90;;;;;;5055600;28;20544;-45
2022/07/10 00:12:40;;;;;;;2.93;2.10;;;19.20;69.80;;;;;;5054509;28;20500;-45
2022/07/10 00:15:07;;;;;;;3.40;3.10;;;19.20;69.90;;;;;;5055406;28;20489;-45
2022/07/10 00:17:35;;;;;;;2.90;2.30;;;19.20;69.80;;;;;;5058083;28;20816;-45
2022/07/10 00:20:03;;;;;;;2.33;2.00;;;19.10;70.00;;;;;;5057135;28;21052;-46
2022/07/10 00:22:30;;;;;;;2.70;2.50;;;19.10;69.80;;;;;;5054984;28;20485;-44
2022/07/10 00:24:57;;;;;;;2.27;2.07;;;19.10;69.90;;;;;;5058837;28;20951;-44
2022/07/10 00:27:23;;;;;;;4.07;2.00;;;19.10;69.10;;;;;;5055189;28;20573;-44
2022/07/10 00:29:50;;;;;;;3.07;2.57;;;19.00;69.40;;;;;;5042979;28;20478;-45
2022/07/10 00:32:17;;;;;;;2.60;2.20;;;18.90;69.20;;;;;;5056264;28;20857;-45
2022/07/10 00:34:44;;;;;;;3.60;1.77;;;18.90;69.50;;;;;;5054718;28;20457;-45
2022/07/10 00:37:10;;;;;;;2.70;2.10;;;18.80;69.60;;;;;;5056670;28;20463;-45
2022/07/10 00:39:37;;;;;;;3.03;2.37;;;18.80;69.80;;;;;;5061457;28;20481;-46
2022/07/10 00:42:08;;;;;;;5.30;2.90;;;18.70;69.70;;;;;;5060735;28;20484;-44
2022/07/10 00:44:35;;;;;;;1.87;1.77;;;18.70;69.80;;;;;;5061833;28;20479;-45
2022/07/10 00:47:06;;;;;;;6.23;2.00;;;18.70;69.70;;;;;;5039000;28;20462;-45
2022/07/10 00:49:34;;;;;;;4.50;2.03;;;18.70;69.70;;;;;;5060760;28;20465;-44
2022/07/10 00:52:05;;;;;;;2.90;2.17;;;18.60;70.10;;;;;;5062683;28;20484;-44
2022/07/10 00:54:33;;;;;;;2.40;1.63;;;18.60;69.90;;;;;;5042294;28;21013;-45
2022/07/10 00:57:02;;;;;;;2.50;2.00;;;18.60;70.00;;;;;;5043552;28;20530;-44
2022/07/10 00:59:29;;;;;;;2.40;1.90;;;18.60;70.00;;;;;;5058371;28;20504;-44
2022/07/10 01:01:56;;;;;;;3.50;2.10;;;18.70;69.90;;;;;;5062661;28;20903;-44
2022/07/10 01:04:24;;;;;;;5.17;2.30;;;18.70;69.80;;;;;;5045172;28;20493;-44
2022/07/10 01:06:51;;;;;;;5.37;2.43;;;18.70;69.80;;;;;;5058964;28;20490;-45
2022/07/10 01:09:19;;;;;;;3.50;1.70;;;18.60;69.40;;;;;;5059545;28;20469;-44
2022/07/10 01:11:46;;;;;;;5.03;2.10;;;18.60;69.50;;;;;;5026690;28;20488;-44
2022/07/10 01:14:14;;;;;;;2.33;1.73;;;18.60;69.40;;;;;;5058109;28;20497;-45
2022/07/10 01:16:41;;;;;;;4.43;2.60;;;18.60;69.40;;;;;;5027715;28;20468;-45
2022/07/10 01:19:08;;;;;;;5.40;2.40;;;18.60;69.20;;;;;;5045259;28;20471;-45
2022/07/10 01:21:37;;;;;;;3.20;2.07;;;18.50;69.20;;;;;;5058183;28;20552;-45
2022/07/10 01:24:08;;;;;;;5.60;2.23;;;18.50;69.00;;;;;;5058560;28;20461;-45
2022/07/10 01:26:36;;;;;;;3.80;1.90;;;18.50;69.20;;;;;;5056484;28;21034;-44
2022/07/10 01:29:06;;;;;;;5.33;2.13;;;18.50;68.80;;;;;;5058676;28;20984;-44
2022/07/10 01:31:33;;;;;;;2.30;1.60;;;18.40;69.00;;;;;;5061863;28;20565;-45
2022/07/10 01:34:02;;;;;;;7.43;2.10;;;18.40;69.20;;;;;;5061699;28;20482;-45
2022/07/10 01:36:29;;;;;;;5.50;2.50;;;18.40;68.80;;;;;;5058022;28;20951;-44
2022/07/10 01:38:57;;;;;;;2.70;1.77;;;18.30;69.00;;;;;;5063040;28;20554;-45
2022/07/10 01:41:25;;;;;;;2.80;1.90;;;18.30;69.00;;;;;;5057520;28;20504;-45
2022/07/10 01:43:52;;;;;;;3.53;2.00;;;18.30;69.10;;;;;;5059238;28;21035;-44
2022/07/10 01:46:19;;;;;;;2.63;1.60;;;18.30;69.00;;;;;;5059740;28;20457;-45
2022/07/10 01:48:46;;;;;;;1.80;1.67;;;18.20;69.20;;;;;;5059482;28;20457;-44
2022/07/10 01:51:13;;;;;;;3.47;1.93;;;18.20;69.30;;;;;;5053873;28;20494;-45
2022/07/10 01:53:40;;;;;;;2.60;1.87;;;18.30;69.10;;;;;;5047346;28;20458;-46
2022/07/10 01:56:09;;;;;;;2.00;1.43;;;18.20;69.30;;;;;;5060799;28;20449;-47
2022/07/10 01:58:36;;;;;;;4.10;1.70;;;18.20;68.80;;;;;;5040768;28;21275;-46
2022/07/10 02:01:05;;;;;;;5.73;2.23;;;18.20;68.90;;;;;;5061183;28;20466;-47
2022/07/10 02:06:17;;;;;;;4.70;1.83;;;18.10;69.00;;;;;;5052121;28;20462;-46
2022/07/10 02:08:44;;;;;;;2.07;1.70;;;18.10;69.20;;;;;;5057464;28;20876;-47
2022/07/10 02:11:12;;;;;;;3.83;2.20;;;18.00;69.40;;;;;;5059966;28;20485;-46
2022/07/10 02:13:39;;;;;;;1.80;1.70;;;18.00;69.50;;;;;;5058934;28;20915;-47
2022/07/10 02:16:06;;;;;;;4.43;2.20;;;18.00;69.60;;;;;;5059239;28;20541;-47
2022/07/10 02:18:33;;;;;;;3.53;1.90;;;18.00;69.70;;;;;;5059313;28;20526;-47
2022/07/10 02:21:00;;;;;;;2.43;2.20;;;18.10;69.40;;;;;;5059527;28;20450;-46
2022/07/10 02:23:28;;;;;;;3.03;1.80;;;18.10;69.20;;;;;;5047044;28;20471;-47
2022/07/10 02:25:54;;;;;;;2.80;1.90;;;18.10;69.20;;;;;;5043377;28;20534;-47
2022/07/10 02:28:21;;;;;;;2.63;1.80;;;18.10;69.00;;;;;;5064113;28;20460;-46
2022/07/10 02:30:48;;;;;;;3.73;2.03;;;18.00;69.10;;;;;;5059670;28;20508;-47
2022/07/10 02:33:15;;;;;;;6.10;2.10;;;18.10;68.80;;;;;;5059166;28;20487;-47
2022/07/10 02:35:41;;;;;;;3.43;2.00;;;18.10;68.40;;;;;;5042399;28;20958;-47
2022/07/10 02:38:08;;;;;;;1.67;1.57;;;18.10;68.40;;;;;;5058117;28;20776;-47
2022/07/10 02:40:35;;;;;;;4.13;2.07;;;18.00;68.50;;;;;;5059581;28;20454;-47
2022/07/10 02:43:02;;;;;;;2.30;1.93;;;18.00;69.00;;;;;;5056985;28;20537;-47
2022/07/10 02:45:29;;;;;;;2.77;1.97;;;17.90;68.90;;;;;;5053635;28;20457;-47
2022/07/10 02:47:55;;;;;;;4.10;2.27;;;17.90;69.00;;;;;;5044555;28;20474;-46
2022/07/10 02:50:22;;;;;;;2.27;2.07;;;17.90;69.00;;;;;;5044187;28;20819;-47
2022/07/10 02:52:49;;;;;;;4.77;2.20;;;17.90;68.60;;;;;;5047283;28;20493;-48
2022/07/10 02:55:16;;;;;;;6.90;2.10;;;17.90;67.60;;;;;;5049281;28;20481;-48
2022/07/10 02:57:43;;;;;;;2.37;1.90;;;17.90;67.80;;;;;;5052617;28;20460;-48
2022/07/10 03:00:11;;;;;;;4.83;3.73;;;17.80;68.30;;;;;;5061541;28;20480;-48
2022/07/10 03:02:38;;;;;;;1.70;1.60;;;17.80;68.60;;;;;;5059435;28;20458;-48
2022/07/10 03:05:05;;;;;;;7.00;2.50;;;17.80;68.30;;;;;;5060735;28;20821;-48
2022/07/10 03:07:32;;;;;;;4.67;1.80;;;17.80;68.20;;;;;;5039645;28;20464;-49
2022/07/10 03:09:59;;;;;;;1.90;1.60;;;17.80;68.20;;;;;;5055168;28;20557;-48
2022/07/10 03:12:25;;;;;;;4.83;1.90;;;17.80;66.90;;;;;;5053804;28;20612;-48
2022/07/10 03:14:52;;;;;;;2.83;1.83;;;17.80;67.10;;;;;;5061615;28;20466;-48
2022/07/10 03:17:19;;;;;;;2.83;1.90;;;17.70;67.50;;;;;;5029339;28;20466;-48
2022/07/10 03:19:46;;;;;;;4.30;1.70;;;17.70;67.60;;;;;;5057611;28;20454;-48
2022/07/10 03:22:13;;;;;;;3.43;1.70;;;17.70;67.40;;;;;;5057939;28;20965;-48
2022/07/10 03:24:39;;;;;;;2.20;1.53;;;17.60;67.70;;;;;;5039175;28;21089;-48
2022/07/10 03:27:06;;;;;;;2.73;2.20;;;17.60;67.60;;;;;;5040058;28;20844;-48
2022/07/10 03:29:33;;;;;;;4.37;1.90;;;17.50;67.90;;;;;;5040898;28;20461;-48
2022/07/10 03:32:00;;;;;;;5.60;2.17;;;17.50;67.50;;;;;;5058424;28;20894;-48
2022/07/10 03:34:26;;;;;;;3.60;1.80;;;17.50;67.60;;;;;;5041929;28;20457;-48
2022/07/10 03:36:53;;;;;;;5.40;1.67;;;17.40;67.70;;;;;;5046341;28;20465;-48
2022/07/10 03:39:20;;;;;;;3.77;1.70;;;17.40;68.10;;;;;;5057794;28;20458;-48
2022/07/10 03:41:47;;;;;;;6.57;2.10;;;17.40;67.30;;;;;;5042253;28;20466;-48
2022/07/10 03:44:13;;;;;;;1.97;1.50;;;17.30;67.30;;;;;;5043700;28;20459;-48
2022/07/10 03:46:40;;;;;;;3.10;1.53;;;17.30;67.60;;;;;;5056162;28;20462;-48
2022/07/10 03:49:07;;;;;;;2.30;1.40;;;17.30;67.60;;;;;;5040478;28;20467;-48
2022/07/10 03:51:34;;;;;;;4.27;1.63;;;17.30;67.70;;;;;;5043748;28;20549;-47
2022/07/10 03:54:00;;;;;;;3.27;2.57;;;17.30;67.60;;;;;;5060839;28;20461;-48
2022/07/10 03:59:16;;;;;;;6.80;3.10;;;17.30;67.70;;;;;;5057484;28;20532;-48
2022/07/10 04:01:43;;;;;;;4.30;1.80;;;17.30;67.60;;;;;;5057509;28;20472;-48
2022/07/10 04:04:10;;;;;;;3.77;1.43;;;17.30;67.20;;;;;;5059851;28;21104;-48
2022/07/10 04:06:40;;;;;;;3.90;2.10;;;17.20;67.40;;;;;;5060910;28;20543;-48
2022/07/10 04:09:07;;;;;;;4.43;2.47;;;17.20;67.30;;;;;;5045535;28;20545;-48
2022/07/10 04:11:34;;;;;;;3.60;1.73;;;17.20;67.30;;;;;;5038613;28;20465;-48
2022/07/10 04:14:00;;;;;;;2.50;1.50;;;17.20;67.40;;;;;;5061371;28;20462;-48
2022/07/10 04:16:27;;;;;;;2.20;1.77;;;17.20;67.40;;;;;;5063548;28;20446;-48
2022/07/10 04:18:54;;;;;;;3.73;2.33;;;17.20;67.10;;;;;;5060572;28;20445;-48
2022/07/10 04:21:21;;;;;;;2.93;1.63;;;17.10;67.20;;;;;;5052330;28;20446;-48
2022/07/10 04:23:48;;;;;;;2.40;1.20;;;17.10;67.20;;;;;;5052896;28;20549;-48
2022/07/10 04:26:14;;;;;;;2.87;1.50;;;17.10;67.00;;;;;;5060933;28;20565;-48
2022/07/10 04:28:41;;;;;;;5.60;1.83;;;17.10;67.30;;;;;;5062130;28;20464;-48
2022/07/10 04:31:08;;;;;;;1.97;1.77;;;17.10;66.50;;;;;;5048757;28;20534;-48
2022/07/10 04:33:35;;;;;;;4.30;1.63;;;17.10;66.40;;;;;;5062267;28;20516;-48
2022/07/10 04:36:02;;;;;;;2.37;2.00;;;17.00;66.80;;;;;;5061916;28;21022;-48
2022/07/10 04:38:29;;;;;;;5.47;2.17;;;17.00;66.80;;;;;;5061104;28;20450;-48
2022/07/10 04:40:55;;;;;;;3.43;1.60;;;17.00;67.10;;;;;;5046767;28;20462;-48
2022/07/10 04:43:22;;;;;;;3.37;1.40;;;17.00;67.30;;;;;;5059532;28;20470;-48
2022/07/10 04:45:49;;;;;;;3.07;2.20;;;17.00;67.40;;;;;;5059746;28;20454;-48
2022/07/10 04:48:15;;;;;;;2.30;1.80;;;17.00;67.30;;;;;;5061279;28;20839;-48
2022/07/10 04:50:42;;;;;;;2.80;1.70;;;17.10;67.00;;;;;;5063066;28;20480;-48
2022/07/10 04:53:09;;;;;;;4.53;1.63;;;17.20;66.80;;;;;;5059285;28;20485;-48
2022/07/10 04:55:36;;;;;;;3.17;1.50;;;17.20;66.40;;;;;;5060283;28;20473;-48
2022/07/10 04:58:02;;;;;;;4.50;1.63;;;17.20;66.50;;;;;;5059001;28;20831;-48
2022/07/10 05:00:29;;;;;;;2.87;1.90;;;17.20;66.60;;;;;;5056915;28;20473;-48
2022/07/10 05:02:56;;;;;;;2.20;1.43;;;17.10;66.40;;;;;;5061256;28;20584;-48
2022/07/10 05:05:23;;;;;;;7.90;2.57;;;17.10;66.60;;;;;;5065883;28;20969;-48
2022/07/10 05:07:50;;;;;;;2.60;1.27;;;17.10;66.60;;;;;;5063888;28;20989;-48
2022/07/10 05:10:17;;;;;;;3.10;1.43;;;17.10;66.10;;;;;;5065386;28;20456;-48
2022/07/10 05:12:43;;;;;;;2.40;1.17;;;17.00;66.20;;;;;;5061560;28;20492;-48
2022/07/10 05:15:10;;;;;;;5.13;2.00;;;17.00;66.50;;;;;;5064113;28;20454;-48
2022/07/10 05:17:37;;;;;;;2.37;1.27;;;17.00;66.70;;;;;;5057663;28;20564;-48
2022/07/10 05:20:05;;;;;;;3.20;1.47;;;17.00;66.80;;;;;;5047740;28;20461;-48
2022/07/10 05:22:32;;;;;;;1.73;1.10;;;17.00;67.00;;;;;;5053971;28;20919;-47
2022/07/10 05:24:59;;;;;;;2.10;1.27;;;17.10;66.50;;;;;;5056690;28;20464;-48
2022/07/10 05:27:26;;;;;;;1.40;1.20;;;17.10;66.00;;;;;;5058137;28;20839;-48
2022/07/10 05:29:53;;;;;;;2.27;1.47;;;17.10;66.20;;;;;;5062310;28;20462;-48
2022/07/10 05:32:21;;;;;;;1.97;1.47;;;17.20;66.50;;;;;;5062982;28;20492;-48
2022/07/10 05:34:48;;;;;;;1.80;1.13;;;17.30;66.20;;;;;;5060306;28;20939;-48
2022/07/10 05:37:15;;;;;;;3.07;1.60;;;17.30;65.20;;;;;;5059719;28;20489;-48
2022/07/10 05:39:42;;;;;;;6.10;1.50;;;17.30;65.30;;;;;;5057236;28;20501;-48
2022/07/10 05:42:09;;;;;;;4.20;1.70;;;17.40;65.50;;;;;;5054097;28;20477;-48
2022/07/10 05:44:36;;;;;;;7.47;1.97;;;17.50;65.70;;;;;;5062116;28;20490;-48
2022/07/10 05:47:03;;;;;;;3.53;1.47;;;17.50;65.20;;;;;;5032868;28;20536;-48
2022/07/10 05:49:31;;;;;;;9.97;1.53;;;17.50;64.90;;;;;;5040402;28;20526;-48
2022/07/10 05:51:58;;;;;;;3.43;1.10;;;17.50;64.60;;;;;;5045242;28;20466;-47
2022/07/10 05:54:25;;;;;;;3.97;1.60;;;17.60;64.00;;;;;;5053449;28;20951;-47
2022/07/10 05:56:53;;;;;;;2.50;1.47;;;17.60;64.20;;;;;;5056239;28;20518;-47
2022/07/10 05:59:20;;;;;;;1.57;1.10;;;17.50;63.60;;;;;;5043117;28;20470;-47
2022/07/10 06:01:47;;;;;;;2.33;1.03;;;17.50;63.60;;;;;;5062521;28;20468;-47
2022/07/10 06:04:13;;;;;;;4.30;1.37;;;17.50;62.50;;;;;;5041702;28;20453;-47
2022/07/10 06:06:40;;;;;;;1.87;1.67;;;17.50;63.30;;;;;;5059839;28;20458;-47
2022/07/10 06:09:07;;;;;;;1.90;1.30;;;17.50;63.50;;;;;;5055914;28;21021;-47
2022/07/10 06:11:34;;;;;;;1.50;1.00;;;17.40;63.90;;;;;;5060580;28;20903;-47
2022/07/10 06:14:01;;;;;;;2.53;1.70;;;17.50;63.60;;;;;;5032122;28;20490;-47
2022/07/10 06:16:27;;;;;;;4.23;1.53;;;17.50;62.10;;;;;;5058820;28;20445;-48
2022/07/10 06:18:54;;;;;;;1.20;1.07;;;17.50;62.40;;;;;;5044240;28;20963;-47
2022/07/10 06:21:22;;;;;;;3.50;1.23;;;17.50;62.60;;;;;;5061000;28;21072;-47
2022/07/10 06:23:50;;;;;;;3.00;1.00;;;17.50;62.90;;;;;;5043406;28;20469;-47
2022/07/10 06:26:17;;;;;;;4.63;1.13;;;17.50;62.20;;;;;;5059312;28;20500;-47
2022/07/10 06:28:43;;;;;;;3.20;1.00;;;17.50;61.40;;;;;;5055397;28;20454;-47
2022/07/10 06:31:10;;;;;;;2.53;0.90;;;17.50;61.90;;;;;;5056282;28;20465;-47
2022/07/10 06:33:37;;;;;;;1.57;0.90;;;17.60;61.30;;;;;;5063304;28;20517;-47
2022/07/10 06:36:04;;;;;;;2.90;1.30;;;17.60;61.50;;;;;;5057328;28;20479;-47
2022/07/10 06:38:31;;;;;;;2.33;1.10;;;17.60;59.30;;;;;;5058756;28;20462;-47
2022/07/10 06:40:58;;;;;;;3.47;1.00;;;17.70;58.80;;;;;;5054721;28;20477;-47
2022/07/10 06:43:25;;;;;;;2.50;1.83;;;17.70;58.20;;;;;;5056261;28;20467;-49
2022/07/10 06:45:52;;;;;;;2.30;1.00;;;17.70;58.00;;;;;;5042469;28;20463;-47
2022/07/10 06:48:20;;;;;;;3.03;0.70;;;17.70;58.20;;;;;;5055304;28;20511;-47
2022/07/10 06:50:47;;;;;;;2.40;1.17;;;17.70;57.70;;;;;;5056896;28;20531;-47
2022/07/10 06:53:15;;;;;;;2.27;0.80;;;17.70;57.50;;;;;;5044628;28;20864;-49
2022/07/10 06:55:42;;;;;;;4.40;1.00;;;17.70;57.20;;;;;;5051693;28;20811;-49
2022/07/10 06:58:10;;;;;;;2.63;1.20;;;17.60;58.00;;;;;;5059654;28;20545;-49
2022/07/10 07:00:37;;;;;;;1.73;0.87;;;17.60;57.90;;;;;;5045767;28;20513;-50
2022/07/10 07:03:03;;;;;;;1.90;0.80;;;17.60;57.10;;;;;;5054564;28;20743;-50
2022/07/10 07:05:30;;;;;;;1.43;0.70;;;17.60;56.50;;;;;;5061858;28;20488;-50
2022/07/10 07:07:57;;;;;;;3.27;1.10;;;17.60;56.20;;;;;;5061519;28;20843;-50
2022/07/10 07:10:24;;;;;;;1.73;0.80;;;17.50;56.90;;;;;;5060090;28;20476;-49
2022/07/10 07:12:51;;;;;;;1.67;0.83;;;17.50;56.50;;;;;;5059809;28;20535;-49
2022/07/10 07:15:18;;;;;;;2.80;0.80;;;17.60;56.20;;;;;;5057810;28;20458;-49
2022/07/10 07:17:56;;;;;;;1.00;0.63;;;17.60;56.40;;;;;;5046621;28;20453;-49
2022/07/10 07:23:10;;;;;;;4.43;0.80;;;17.60;55.70;;;;;;5063143;28;20445;-49
2022/07/10 07:25:46;;;;;;;1.80;0.97;;;17.60;55.80;;;;;;5044942;28;20464;-49
2022/07/10 07:28:18;;;;;;;1.53;0.60;;;17.60;56.10;;;;;;5049953;28;20472;-49
2022/07/10 07:30:46;;;;;;;1.77;0.93;;;17.60;55.70;;;;;;5043377;28;20465;-49
2022/07/10 07:33:13;;;;;;;1.80;0.67;;;17.70;56.60;;;;;;5065055;28;20496;-47
2022/07/10 07:35:40;;;;;;;1.27;0.70;;;17.80;55.30;;;;;;5045233;28;20829;-45
2022/07/10 07:38:06;;;;;;;3.23;0.70;;;17.90;54.50;;;;;;5043256;28;20814;-45
2022/07/10 07:40:34;;;;;;;1.00;0.90;;;18.00;54.80;;;;;;5047239;28;20463;-47
2022/07/10 07:43:00;;;;;;;2.00;0.83;;;18.00;54.90;;;;;;5042921;28;20465;-47
2022/07/10 07:45:27;;;;;;;2.73;1.07;;;18.00;54.10;;;;;;5062236;28;20524;-47
2022/07/10 07:47:56;;;;;;;1.27;0.67;;;18.10;54.90;;;;;;5061689;28;20461;-47
2022/07/10 07:50:26;;;;;;;2.73;0.60;;;18.10;53.20;;;;;;5050583;28;20480;-47
2022/07/10 07:52:53;;;;;;;1.77;0.73;;;18.10;53.30;;;;;;5072100;28;20491;-47
2022/07/10 07:55:21;;;;;;;2.10;0.70;;;18.10;52.70;;;;;;5068488;28;20475;-49
2022/07/10 07:57:53;;;;;;;2.83;0.53;;;18.10;53.40;;;;;;5051617;28;20457;-49
2022/07/10 08:00:22;;;;;;;1.10;0.60;;;18.20;53.90;;;;;;5056769;28;21058;-49
2022/07/10 08:02:53;;;;;;;2.27;0.77;;;18.20;53.30;;;;;;5067063;28;20460;-47
2022/07/10 08:05:23;;;;;;;1.33;0.70;;;18.30;53.90;;;;;;5066772;28;20470;-47
2022/07/10 08:07:52;;;;;;;1.83;0.70;;;18.40;52.90;;;;;;5052902;28;20495;-46
2022/07/10 08:10:22;;;;;;;4.37;0.87;;;18.50;52.70;;;;;;5043575;28;20476;-49
2022/07/10 08:12:49;;;;;;;1.40;0.90;;;18.70;52.30;;;;;;5067895;28;20486;-49
2022/07/10 08:15:18;;;;;;;4.00;1.63;;;18.90;51.70;;;;;;5067619;28;20488;-47
2022/07/10 08:17:53;;;;;;;3.17;0.90;;;19.20;51.70;;;;;;5063334;28;20466;-49
2022/07/10 08:20:20;;;;;;;2.23;1.17;;;19.50;50.70;;;;;;5064885;28;20568;-45
2022/07/10 08:22:48;;;;;;;2.13;0.60;;;19.60;50.70;;;;;;5062881;28;20461;-45
2022/07/10 08:25:21;;;;;;;1.10;0.70;;;19.70;50.90;;;;;;5065377;28;20528;-45
2022/07/10 08:27:48;;;;;;;2.73;0.80;;;19.90;50.70;;;;;;5066274;28;20804;-46
2022/07/10 08:30:15;;;;;;;1.90;0.60;;;20.10;50.10;;;;;;5062028;28;20454;-48
2022/07/10 08:32:42;;;;;;;1.57;0.97;;;20.30;50.00;;;;;;5058533;28;20476;-48
2022/07/10 08:35:10;;;;;;;1.20;0.80;;;20.50;49.50;;;;;;5057113;28;20544;-47
2022/07/10 08:37:47;;;;;;;1.50;1.00;;;20.60;49.50;;;;;;5058936;28;20464;-47
2022/07/10 08:40:15;;;;;;;2.00;0.97;;;20.60;50.30;;;;;;5058994;28;21056;-47
2022/07/10 08:42:44;;;;;;;4.60;1.10;;;20.60;50.10;;;;;;5070042;28;20453;-47
2022/07/10 08:45:12;;;;;;;7.13;1.53;;;20.60;50.80;;;;;;5072991;28;20536;-46
2022/07/10 08:47:41;;;;;;;2.87;1.43;;;20.60;50.70;;;;;;5062138;28;20521;-46
2022/07/10 08:50:22;;;;;;;1.20;0.80;;;20.70;50.60;;;;;;5072766;28;20544;-46
2022/07/10 08:53:00;;;;;;;1.37;1.03;;;20.80;50.60;;;;;;5065635;28;20463;-46
2022/07/10 08:55:27;;;;;;;3.60;0.90;;;21.10;50.30;;;;;;5066191;28;20453;-45
2022/07/10 08:57:55;;;;;;;1.73;1.00;;;21.20;49.30;;;;;;5064881;28;20458;-45
2022/07/10 09:00:24;;;;;;;2.17;1.03;;;21.30;50.00;;;;;;5062879;28;20508;-45
2022/07/10 09:02:52;;;;;;;4.67;1.03;;;21.40;49.10;;;;;;5062829;28;20533;-45
2022/07/10 09:05:19;;;;;;;2.73;0.83;;;21.50;49.50;;;;;;5060383;28;20457;-48
2022/07/10 09:07:46;;;;;;;3.40;2.10;;;21.50;49.50;;;;;;5049159;28;20438;-50
2022/07/10 09:10:13;;;;;;;1.57;0.87;;;21.40;49.70;;;;;;5059367;28;20462;-49
2022/07/10 09:12:58;;;;;;;1.93;0.83;;;21.40;49.70;;;;;;5061090;28;20454;-49
2022/07/10 09:15:29;;;;;;;3.20;1.53;;;21.50;49.70;;;;;;5063553;28;20492;-49
2022/07/10 09:18:07;;;;;;;1.47;1.10;;;21.60;49.10;;;;;;5064465;28;20998;-49
2022/07/10 09:20:42;;;;;;;3.37;0.80;;;21.70;48.50;;;;;;5052855;28;20442;-48
2022/07/10 09:23:20;;;;;;;2.67;1.20;;;21.80;48.20;;;;;;5061440;28;20456;-49
2022/07/10 09:25:51;;;;;;;5.50;1.27;;;21.80;48.00;;;;;;5060594;28;20445;-49
2022/07/10 09:28:21;;;;;;;3.17;1.30;;;21.80;48.40;;;;;;5061027;28;20970;-49
2022/07/10 09:30:48;;;;;;;4.67;1.10;;;21.90;48.60;;;;;;5063638;28;20496;-45
2022/07/10 09:33:25;;;;;;;2.87;1.27;;;22.00;47.90;;;;;;5049511;28;20501;-45
2022/07/10 09:36:10;;;;;;;2.30;0.97;;;21.80;48.10;;;;;;5064316;28;20841;-46
2022/07/10 09:38:42;;;;;;;1.27;1.13;;;21.60;48.50;;;;;;5043643;28;20997;-48
2022/07/10 09:41:22;;;;;;;3.93;1.50;;;21.50;49.10;;;;;;5047623;28;20526;-49
2022/07/10 09:44:03;;;;;;;3.17;1.17;;;21.70;49.50;;;;;;5060215;28;20481;-49
2022/07/10 09:46:35;;;;;;;4.23;0.93;;;21.80;48.50;;;;;;5061747;28;20944;-48
2022/07/10 09:49:02;;;;;;;3.23;0.90;;;21.80;48.30;;;;;;5022851;28;21242;-49
2022/07/10 09:51:34;;;;;;;3.07;1.40;;;21.60;48.90;;;;;;5044617;28;21010;-49
2022/07/10 09:54:03;;;;;;;2.87;1.07;;;21.40;49.30;;;;;;5057492;28;20866;-48
2022/07/10 09:56:43;;;;;;;3.23;1.10;;;21.30;49.40;;;;;;5044108;28;20461;-49
2022/07/10 09:59:16;;;;;;;3.37;1.30;;;21.30;49.90;;;;;;5061160;28;20461;-48
2022/07/10 10:01:48;;;;;;;3.60;1.20;;;21.40;49.10;;;;;;5055969;28;21055;-48
2022/07/10 10:04:18;;;;;;;4.00;1.40;;;21.50;48.90;;;;;;5060154;28;20496;-48
2022/07/10 10:06:52;;;;;;;1.97;1.10;;;21.50;48.90;;;;;;5060248;28;20866;-48
2022/07/10 10:09:23;;;;;;;1.73;1.10;;;21.50;49.00;;;;;;5058297;28;20549;-46
2022/07/10 10:12:00;;;;;;;1.50;1.03;;;21.50;49.30;;;;;;5043430;28;20989;-51
2022/07/10 10:14:29;;;;;;;8.13;1.50;;;21.70;49.10;;;;;;5061091;28;20489;-46
2022/07/10 10:16:57;;;;;;;5.50;2.67;;;21.90;48.90;;;;;;5060445;28;20547;-45
2022/07/10 10:22:11;;;;;;;3.13;1.43;;;22.10;49.00;;;;;;5063919;28;20438;-46
2022/07/10 10:24:42;;;;;;;5.97;1.77;;;22.10;48.70;;;;;;5062771;28;20502;-45
2022/07/10 10:27:09;;;;;;;4.27;1.27;;;22.00;49.00;;;;;;5059626;28;20469;-46
2022/07/10 10:29:37;;;;;;;2.87;1.70;;;21.90;49.10;;;;;;5050997;28;20471;-46
2022/07/10 10:32:07;;;;;;;3.10;1.50;;;21.80;49.40;;;;;;5038015;28;20468;-45
2022/07/10 10:34:58;;;;;;;2.03;1.13;;;21.70;49.40;;;;;;5043261;28;21026;-46
2022/07/10 10:37:36;;;;;;;4.33;1.23;;;21.60;49.10;;;;;;5062381;28;20472;-46
2022/07/10 10:40:05;;;;;;;6.70;1.77;;;21.60;49.00;;;;;;5061026;28;20456;-48
2022/07/10 10:42:39;;;;;;;2.43;1.67;;;21.60;49.30;;;;;;5056467;28;20870;-47
2022/07/10 10:45:34;;;;;;;3.60;1.13;;;21.70;49.00;;;;;;5055272;28;20583;-49
2022/07/10 10:48:09;;;;;;;1.70;1.10;;;21.90;48.50;;;;;;5054923;28;20995;-50
2022/07/10 10:50:59;;;;;;;4.10;1.60;;;22.00;48.30;;;;;;5050161;28;20462;-47
2022/07/10 10:53:27;;;;;;;1.83;1.37;;;22.30;47.60;;;;;;5057932;28;20498;-47
2022/07/10 10:56:00;;;;;;;4.00;1.50;;;22.30;47.70;;;;;;5055216;28;20472;-45
2022/07/10 10:58:44;;;;;;;3.23;1.53;;;22.30;47.90;;;;;;5061176;28;20942;-50
2022/07/10 11:01:21;;;;;;;3.63;1.50;;;22.30;48.50;;;;;;5069614;28;20854;-47
2022/07/10 11:04:03;;;;;;;2.77;1.53;;;22.20;48.30;;;;;;5064735;28;20496;-48
2022/07/10 11:06:53;;;;;;;2.90;1.40;;;22.10;48.40;;;;;;5048207;28;20539;-47
2022/07/10 11:09:25;;;;;;;2.37;1.70;;;22.10;48.90;;;;;;5063756;28;20466;-47
2022/07/10 11:12:08;;;;;;;2.47;1.30;;;22.00;48.40;;;;;;5025532;28;20560;-48
2022/07/10 11:14:44;;;;;;;3.20;1.00;;;22.00;48.60;;;;;;5057035;28;20482;-48
2022/07/10 11:17:11;;;;;;;1.30;1.10;;;22.00;48.90;;;;;;5045191;28;20456;-48
2022/07/10 11:19:38;;;;;;;3.17;1.80;;;21.90;48.30;;;;;;5055956;28;20462;-48
2022/07/10 11:22:22;;;;;;;7.30;1.20;;;21.90;48.40;;;;;;5057452;28;20453;-48
2022/07/10 11:25:01;;;;;;;1.30;1.20;;;21.90;48.70;;;;;;5057844;28;20465;-48
2022/07/10 11:27:34;;;;;;;3.00;1.20;;;21.80;48.70;;;;;;5043221;28;21053;-49
2022/07/10 11:30:01;;;;;;;2.30;1.20;;;21.80;49.00;;;;;;5043172;28;20484;-49
2022/07/10 11:32:28;;;;;;;4.17;1.13;;;21.80;48.70;;;;;;5058242;28;21077;-49
2022/07/10 11:34:55;;;;;;;4.20;1.00;;;21.70;48.80;;;;;;5057202;28;20489;-46
2022/07/10 11:37:25;;;;;;;1.70;1.10;;;21.70;48.80;;;;;;5054251;28;20481;-47
2022/07/10 11:39:52;;;;;;;3.03;1.57;;;21.70;48.50;;;;;;5062845;28;20452;-47
2022/07/10 11:42:18;;;;;;;3.60;1.10;;;21.70;48.50;;;;;;5064327;28;20458;-47
2022/07/10 11:44:45;;;;;;;3.90;1.43;;;21.60;49.40;;;;;;5065493;28;20457;-47
2022/07/10 11:47:12;;;;;;;2.20;1.37;;;21.60;49.40;;;;;;5049571;28;20825;-48
2022/07/10 11:49:46;;;;;;;3.23;1.07;;;21.50;49.10;;;;;;5058788;28;20466;-48
2022/07/10 11:52:13;;;;;;;2.20;1.30;;;21.50;49.50;;;;;;5062427;28;20505;-48
2022/07/10 11:54:42;;;;;;;2.07;1.07;;;21.50;49.60;;;;;;5060719;28;20597;-48
2022/07/10 11:57:09;;;;;;;1.77;1.23;;;21.60;49.40;;;;;;5058506;28;20541;-48
2022/07/10 11:59:36;;;;;;;2.37;1.20;;;21.60;50.30;;;;;;5056249;28;20485;-49
2022/07/10 12:02:03;;;;;;;4.30;1.20;;;21.60;49.10;;;;;;5058056;28;20982;-49
2022/07/10 12:04:31;;;;;;;3.27;1.47;;;21.60;49.50;;;;;;5054510;28;20458;-48
2022/07/10 12:06:58;;;;;;;2.87;1.10;;;21.60;49.60;;;;;;5056114;28;20473;-48
2022/07/10 12:09:25;;;;;;;2.10;0.93;;;21.70;49.70;;;;;;5062784;28;20834;-49
2022/07/10 12:12:06;;;;;;;1.33;1.20;;;21.70;49.70;;;;;;5059147;28;20911;-49
2022/07/10 12:14:34;;;;;;;4.10;1.23;;;21.70;49.50;;;;;;5059081;28;20565;-49
2022/07/10 12:17:09;;;;;;;2.83;1.10;;;21.70;49.40;;;;;;5054845;28;20466;-49
2022/07/10 12:19:38;;;;;;;2.37;0.93;;;21.70;49.60;;;;;;5040184;28;20516;-49
2022/07/10 12:22:05;;;;;;;5.33;1.10;;;21.70;49.40;;;;;;5044264;28;20462;-49
2022/07/10 12:24:33;;;;;;;4.10;1.53;;;21.80;49.50;;;;;;5061832;28;20449;-49
2022/07/10 12:26:59;;;;;;;1.07;0.80;;;21.90;49.10;;;;;;5055670;28;20575;-49
2022/07/10 12:29:28;;;;;;;3.60;1.00;;;22.00;49.40;;;;;;5057186;28;20481;-49
2022/07/10 12:32:03;;;;;;;2.60;1.17;;;22.00;49.60;;;;;;5060331;28;20549;-49
2022/07/10 12:34:39;;;;;;;1.87;1.10;;;22.00;49.30;;;;;;5046228;28;20569;-49
2022/07/10 12:37:11;;;;;;;2.60;0.80;;;22.00;49.30;;;;;;5060109;28;20712;-49
2022/07/10 12:39:50;;;;;;;0.90;0.63;;;22.00;49.40;;;;;;5047834;28;20975;-49
2022/07/10 12:42:28;;;;;;;4.33;1.13;;;22.00;49.30;;;;;;5061118;28;20457;-50
2022/07/10 12:45:17;;;;;;;4.00;1.00;;;22.00;49.80;;;;;;5059536;28;20457;-50
2022/07/10 12:47:46;;;;;;;2.17;0.97;;;22.10;49.60;;;;;;5059516;28;20460;-49
2022/07/10 12:50:14;;;;;;;2.60;0.83;;;22.00;49.40;;;;;;5038872;28;20466;-49
2022/07/10 12:52:40;;;;;;;1.10;1.00;;;22.00;49.80;;;;;;5062025;28;20958;-49
2022/07/10 12:55:09;;;;;;;1.30;1.00;;;21.90;49.70;;;;;;5060966;28;20552;-49
2022/07/10 12:57:48;;;;;;;2.33;0.67;;;22.00;50.00;;;;;;5049458;28;21030;-49
2022/07/10 13:00:18;;;;;;;1.47;0.60;;;22.00;49.70;;;;;;5058444;28;20497;-49
2022/07/10 13:02:50;;;;;;;3.97;0.70;;;21.90;49.70;;;;;;5061424;28;20458;-49
2022/07/10 13:05:27;;;;;;;3.53;0.70;;;21.90;49.60;;;;;;5058352;28;20465;-49
2022/07/10 13:08:19;;;;;;;0.70;0.70;;;21.90;49.60;;;;;;5066761;28;20825;-49